ADDS METAR Data INFO
IDs: Format: Raw Decoded Include TAF

Data at: 0258 UTC 21 Jan 2018

KPBI 210253Z 34004KT 10SM FEW030 BKN160 17/16 A3026 RMK AO2 SLP245 T01720156 52007
KPBI 210153Z 34005KT 10SM FEW030 BKN180 17/15 A3025 RMK AO2 SLP244 T01720150
KPBI 210053Z 35005KT 10SM FEW030 BKN170 19/14 A3024 RMK AO2 SLP240 T01940144
KPBI 202353Z 00000KT 10SM FEW030 OVC170 21/13 A3024 RMK AO2 SLP238 T02110133 10228 20206 53012
KPBI 202253Z 09005KT 10SM FEW030 OVC160 21/13 A3021 RMK AO2 SLP231 T02110133
KPBI 202153Z 08007KT 10SM FEW035 OVC160 22/13 A3020 RMK AO2 SLP226 T02170133
KPBI 202053Z 08009KT 10SM FEW045 BKN180 22/13 A3020 RMK AO2 SLP226 T02220133 58010
KPBI 201953Z 07010KT 10SM FEW030 BKN050 OVC200 22/14 A3021 RMK AO2 SLP229 T02220139 $
KPBI 201853Z 07010KT 10SM SCT037 BKN060 BKN250 22/14 A3023 RMK AO2 SLP235 T02220139 $
KPBI 201753Z 09011KT 10SM SCT037 BKN060 BKN250 22/14 A3023 RMK AO2 SLP237 T02170139 10222 20150 58016 $
KPBI 201653Z 09008KT 10SM BKN037 BKN150 BKN250 22/14 A3026 RMK AO2 SLP247 T02220144
KPBI 201553Z 09007KT 10SM BKN034 BKN150 BKN250 22/14 A3029 RMK AO2 SLP255 T02170139
KPBI 201453Z 35003KT 10SM BKN034 BKN150 BKN250 19/14 A3028 RMK AO2 SLP253 T01940144 53021
KPBI 201353Z 32005KT 10SM BKN034 BKN120 BKN250 17/13 A3026 RMK AO2 SLP245 T01670128
KPBI 201253Z 33003KT 10SM SCT033 BKN120 BKN200 15/12 A3023 RMK AO2 SLP237 T01500117 $
KPBI 201153Z 01004KT 10SM SCT040 BKN120 BKN200 15/12 A3022 RMK AO2 SLP232 T01560122 10167 20150 51001 $
KPBI 201053Z 30004KT 10SM SCT040 15/12 A3022 RMK AO2 SLP232 T01500122 $
KPBI 200953Z 31005KT 10SM SCT038 15/12 A3022 RMK AO2 SLP231 T01500122 $
KPBI 200853Z 33005KT 10SM BKN038 15/12 A3021 RMK AO2 SLP231 T01500117 56008 $
KPBI 200753Z 33004KT 10SM BKN040 15/12 A3022 RMK AO2 SLP231 T01500117 $
KPBI 200653Z 33003KT 10SM BKN040 15/13 A3023 RMK AO2 SLP236 T01560128 $
KPBI 200553Z 29003KT 10SM BKN040 16/12 A3024 RMK AO2 SLP239 T01670122 10189 20161 58007 $
KPBI 200453Z 34003KT 10SM BKN040 16/13 A3025 RMK AO2 SLP243 T01670128 402000089 $
KPBI 200353Z 30004KT 10SM SCT040 17/12 A3026 RMK AO2 SLP247 T01720122 $
KPBI 200253Z VRB03KT 10SM SCT040 16/12 A3026 RMK AO2 SLP246 T01610117 51014 $
KPBI 200153Z 32005KT 10SM SCT040 17/11 A3025 RMK AO2 SLP242 T01720111 $
KPBI 200053Z 34005KT 10SM SCT040 17/11 A3023 RMK AO2 SLP237 T01720111 $
KPBI 192353Z 34005KT 10SM SCT040 SCT250 19/11 A3022 RMK AO2 SLP232 T01890111 10200 20189 53002 $
KPBI 192253Z 06008KT 10SM SCT040 BKN150 BKN250 19/11 A3022 RMK AO2 SLP231 T01940111 $
KPBI 192153Z 05007KT 10SM SCT035 BKN150 BKN250 19/12 A3021 RMK AO2 SLP229 T01940117 $
KPBI 192053Z COR VRB06KT 10SM SCT031 BKN150 BKN250 19/11 A3021 RMK AO2 SLP231 T01940117 56018 $
KPBI 191953Z 08006KT 10SM SCT036 BKN050 BKN250 20/11 A3023 RMK AO2 SLP235 T02000111 $
KPBI 191853Z 08006KT 10SM BKN035 BKN055 BKN250 20/12 A3024 RMK AO2 SLP239 T01940117 $
KPBI 191753Z 05008KT 10SM SCT037 BKN250 20/12 A3027 RMK AO2 SLP248 T01940117 10194 20089 58016 $
KPBI 191653Z 03006KT 10SM SCT038 BKN250 20/13 A3029 RMK AO2 SLP257 T01940128 $
KPBI 191553Z 36009KT 10SM SCT040 BKN250 17/12 A3031 RMK AO2 SLP262 T01720117 $